createdAt,value
2023-02-19T00:01:16.676Z,101894.09
2023-02-19T00:03:48.176Z,101890.63
2023-02-19T00:06:14.701Z,101888.00
2023-02-19T00:08:41.275Z,101886.34
2023-02-19T00:11:11.846Z,101899.50
2023-02-19T00:13:41.315Z,101894.25
2023-02-19T00:16:19.573Z,101893.44
2023-02-19T00:18:47.246Z,101896.72
2023-02-19T00:21:14.995Z,101893.44
2023-02-19T00:23:41.695Z,101899.66
2023-02-19T00:26:18.023Z,101900.50
2023-02-19T00:28:45.642Z,101900.50
2023-02-19T00:31:38.651Z,101905.75
2023-02-19T00:34:06.682Z,101917.91
2023-02-19T00:36:36.641Z,101904.09
2023-02-19T00:39:04.734Z,101905.06
2023-02-19T00:41:31.649Z,101905.06
2023-02-19T00:43:59.372Z,101905.91
2023-02-19T00:46:30.298Z,101912.13
2023-02-19T00:48:58.246Z,101906.06
2023-02-19T00:51:28.202Z,101911.16
2023-02-19T00:53:54.886Z,101911.16
2023-02-19T00:56:22.058Z,101904.09
2023-02-19T00:58:49.383Z,101907.03
2023-02-19T01:01:17.215Z,101911.44
2023-02-19T01:03:44.078Z,101914.94
2023-02-19T01:06:13.039Z,101926.41
2023-02-19T01:08:39.748Z,101917.56
2023-02-19T01:11:07.727Z,101919.34
2023-02-19T01:13:35.579Z,101923.78
2023-02-19T01:16:08.468Z,101921.16
2023-02-19T01:18:35.918Z,101925.59
2023-02-19T01:21:12.353Z,101930.03
2023-02-19T01:23:39.353Z,101932.81
2023-02-19T01:26:07.474Z,101938.91
2023-02-19T01:28:34.520Z,101938.22
2023-02-19T01:31:05.789Z,101941.84
2023-02-19T01:33:33.398Z,101941.84
2023-02-19T01:36:02.857Z,101944.59
2023-02-19T01:38:29.371Z,101937.69
2023-02-19T01:41:02.127Z,101948.38
2023-02-19T01:43:29.268Z,101945.75
2023-02-19T01:45:55.808Z,101941.59
2023-02-19T01:48:28.409Z,101946.03
2023-02-19T01:51:00.588Z,101946.19
2023-02-19T01:53:31.746Z,101947.97
2023-02-19T01:56:01.212Z,101944.69
2023-02-19T01:58:31.570Z,101944.81
2023-02-19T02:00:59.696Z,101945.00
2023-02-19T02:03:26.312Z,101948.59
2023-02-19T02:06:08.406Z,101942.66
2023-02-19T02:08:53.776Z,101941.84
2023-02-19T02:11:20.951Z,101951.66
2023-02-19T02:13:48.607Z,101952.66
2023-02-19T02:16:30.625Z,101956.09
2023-02-19T02:19:15.834Z,101950.03
2023-02-19T02:21:57.480Z,101954.63
2023-02-19T02:24:58.953Z,101950.19
2023-02-19T02:27:35.745Z,101960.84
2023-02-19T02:30:27.220Z,101958.19
2023-02-19T02:33:29.744Z,101954.75
2023-02-19T02:36:01.583Z,101958.38
2023-02-19T02:38:32.026Z,101956.72
2023-02-19T02:40:59.438Z,101965.44
2023-02-19T02:43:26.159Z,101963.78
2023-02-19T02:45:52.882Z,101963.91
2023-02-19T02:48:25.149Z,101966.72
2023-02-19T02:51:11.108Z,101962.41
2023-02-19T02:54:09.048Z,101960.63
2023-02-19T02:56:36.252Z,101966.03
2023-02-19T02:59:05.919Z,101966.03
2023-02-19T03:02:05.282Z,101968.66
2023-02-19T03:05:03.668Z,101974.88
2023-02-19T03:07:51.241Z,101978.50
2023-02-19T03:10:25.148Z,101976.69
2023-02-19T03:13:13.549Z,101974.06
2023-02-19T03:16:08.068Z,101989.00
2023-02-19T03:18:58.225Z,101982.91
2023-02-19T03:21:26.850Z,101978.50
2023-02-19T03:24:14.668Z,101987.19
2023-02-19T03:26:43.780Z,101985.53
2023-02-19T03:29:25.831Z,101985.41
2023-02-19T03:31:57.131Z,101987.19
2023-02-19T03:34:30.405Z,101988.16
2023-02-19T03:37:06.256Z,101989.13
2023-02-19T03:39:33.068Z,101996.38
2023-02-19T03:42:11.312Z,102000.63
2023-02-19T03:44:43.117Z,102001.47
2023-02-19T03:47:18.820Z,101995.38
2023-02-19T03:49:49.164Z,102010.16
2023-02-19T03:52:23.840Z,102003.09
2023-02-19T03:55:03.396Z,102010.31
2023-02-19T03:58:08.312Z,102015.72
2023-02-19T04:00:58.307Z,102021.94
2023-02-19T04:03:35.200Z,102026.50
2023-02-19T04:06:05.622Z,102027.38
2023-02-19T04:08:35.682Z,102023.22
2023-02-19T04:11:03.369Z,102032.91
2023-02-19T04:13:54.925Z,102035.53
2023-02-19T04:16:24.826Z,102047.84
2023-02-19T04:18:54.965Z,102050.59
2023-02-19T04:21:23.013Z,102048.97
2023-02-19T04:23:50.193Z,102043.00
2023-02-19T04:26:17.498Z,102056.31
2023-02-19T04:28:44.319Z,102055.47
2023-02-19T04:31:11.841Z,102057.28
2023-02-19T04:33:38.621Z,102059.91
2023-02-19T04:36:05.712Z,102065.16
2023-02-19T04:38:32.207Z,102068.75
2023-02-19T04:40:58.847Z,102068.75
2023-02-19T04:43:25.389Z,102074.84
2023-02-19T04:45:52.063Z,102077.47
2023-02-19T04:48:18.565Z,102083.69
2023-02-19T04:50:45.098Z,102092.38
2023-02-19T04:53:11.671Z,102084.50
2023-02-19T04:55:39.351Z,102096.81
2023-02-19T04:58:06.048Z,102105.53
2023-02-19T05:00:34.061Z,102111.63
2023-02-19T05:03:01.140Z,102110.78
2023-02-19T05:05:27.939Z,102116.03
2023-02-19T05:07:54.521Z,102115.22
2023-02-19T05:10:21.225Z,102111.75
2023-02-19T05:12:47.756Z,102114.38
2023-02-19T05:15:14.395Z,102126.69
2023-02-19T05:17:40.914Z,102125.06
2023-02-19T05:20:08.107Z,102127.69
2023-02-19T05:22:34.591Z,102125.06
2023-02-19T05:25:01.209Z,102124.22
2023-02-19T05:27:27.705Z,102134.75
2023-02-19T05:29:54.284Z,102140.94
2023-02-19T05:32:20.789Z,102145.53
2023-02-19T05:34:47.393Z,102146.47
2023-02-19T05:37:13.930Z,102144.00
2023-02-19T05:39:40.440Z,102138.91
2023-02-19T05:42:07.024Z,102136.94
2023-02-19T05:44:33.603Z,102147.75
2023-02-19T05:47:00.117Z,102145.09
2023-02-19T05:49:27.966Z,102139.19
2023-02-19T05:51:54.542Z,102149.81
2023-02-19T05:54:21.058Z,102141.94
2023-02-19T05:56:47.713Z,102143.75
2023-02-19T05:59:19.834Z,102153.44
2023-02-19T06:01:47.146Z,102155.94
2023-02-19T06:04:14.461Z,102156.88
2023-02-19T06:06:42.068Z,102165.72
2023-02-19T06:09:09.208Z,102158.00
2023-02-19T06:11:36.097Z,102179.84
2023-02-19T06:14:02.752Z,102173.78
2023-02-19T06:16:29.643Z,102177.22
2023-02-19T06:18:56.262Z,102179.97
2023-02-19T06:21:22.891Z,102194.91
2023-02-19T06:23:49.700Z,102197.53
2023-02-19T06:26:19.691Z,102198.50
2023-02-19T06:28:48.280Z,102207.38
2023-02-19T06:31:15.602Z,102208.31
2023-02-19T06:33:42.636Z,102217.00
2023-02-19T06:36:17.530Z,102217.31
2023-02-19T06:38:45.007Z,102217.31
2023-02-19T06:41:12.526Z,102218.28
2023-02-19T06:43:39.343Z,102223.69
2023-02-19T06:46:07.092Z,102223.81
2023-02-19T06:48:34.279Z,102226.44
2023-02-19T06:51:00.978Z,102217.03
2023-02-19T06:53:27.749Z,102228.38
2023-02-19T06:56:03.719Z,102221.47
2023-02-19T06:58:30.990Z,102241.50
2023-02-19T07:00:57.576Z,102232.81
2023-02-19T07:03:24.300Z,102244.28
2023-02-19T07:05:50.949Z,102244.28
2023-02-19T07:08:17.597Z,102258.25
2023-02-19T07:10:55.689Z,102256.44
2023-02-19T07:13:23.486Z,102268.75
2023-02-19T07:15:52.078Z,102267.06
2023-02-19T07:18:18.906Z,102267.91
2023-02-19T07:20:45.541Z,102281.88
2023-02-19T07:23:12.163Z,102284.50
2023-02-19T07:25:39.286Z,102292.50
2023-02-19T07:28:06.368Z,102291.56
2023-02-19T07:30:33.272Z,102294.19
2023-02-19T07:32:59.893Z,102304.38
2023-02-19T07:35:26.834Z,102300.81
2023-02-19T07:37:53.567Z,102309.09
2023-02-19T07:40:20.216Z,102316.97
2023-02-19T07:42:46.738Z,102314.19
2023-02-19T07:45:13.370Z,102309.66
2023-02-19T07:47:39.894Z,102309.38
2023-02-19T07:50:06.948Z,102308.13
2023-02-19T07:52:34.431Z,102315.28
2023-02-19T07:55:01.165Z,102322.91
2023-02-19T07:57:28.916Z,102330.50
2023-02-19T07:59:55.638Z,102327.06
2023-02-19T08:02:40.652Z,102328.72
2023-02-19T08:05:07.651Z,102332.03
2023-02-19T08:07:35.058Z,102335.34
2023-02-19T08:10:20.898Z,102347.66
2023-02-19T08:13:17.331Z,102345.84
2023-02-19T08:15:44.178Z,102346.81
2023-02-19T08:18:11.508Z,102348.47
2023-02-19T08:20:38.241Z,102357.06
2023-02-19T08:23:05.252Z,102362.06
2023-02-19T08:25:31.935Z,102362.88
2023-02-19T08:28:00.316Z,102367.44
2023-02-19T08:30:27.640Z,102377.81
2023-02-19T08:32:55.108Z,102381.53
2023-02-19T08:35:22.025Z,102388.44
2023-02-19T08:37:48.565Z,102386.78
2023-02-19T08:40:15.387Z,102392.88
2023-02-19T08:42:41.965Z,102388.31
2023-02-19T08:45:09.101Z,102396.22
2023-02-19T08:47:36.505Z,102399.66
2023-02-19T08:50:05.054Z,102405.59
2023-02-19T08:52:31.733Z,102403.25
2023-02-19T08:54:58.842Z,102395.38
2023-02-19T08:57:26.687Z,102398.00
2023-02-19T08:59:53.407Z,102383.19
2023-02-19T09:02:19.934Z,102392.75
2023-02-19T09:04:46.499Z,102403.50
2023-02-19T09:07:13.407Z,102397.16
2023-02-19T09:09:40.586Z,102389.56
2023-02-19T09:12:09.643Z,102396.75
2023-02-19T09:14:36.898Z,102405.59
2023-02-19T09:17:05.521Z,102414.16
2023-02-19T09:19:32.906Z,102423.69
2023-02-19T09:21:59.920Z,102414.44
2023-02-19T09:24:26.725Z,102413.47
2023-02-19T09:26:54.672Z,102425.78
2023-02-19T09:29:24.131Z,102422.59
2023-02-19T09:31:50.634Z,102441.13
2023-02-19T09:34:17.324Z,102450.16
2023-02-19T09:36:43.864Z,102452.63
2023-02-19T09:39:12.496Z,102460.13
2023-02-19T09:41:58.656Z,102470.75
2023-02-19T09:44:34.449Z,102470.63
2023-02-19T09:47:03.810Z,102480.59
2023-02-19T09:49:35.731Z,102484.16
2023-02-19T09:52:24.375Z,102497.47
2023-02-19T09:54:52.136Z,102490.28
2023-02-19T09:57:21.489Z,102493.19
2023-02-19T10:00:00.367Z,102499.69
2023-02-19T10:02:27.734Z,102502.59
2023-02-19T10:04:54.761Z,102510.19
2023-02-19T10:07:38.399Z,102522.78
2023-02-19T10:10:14.028Z,102530.50
2023-02-19T10:12:46.240Z,102543.34
2023-02-19T10:15:32.376Z,102540.16
2023-02-19T10:17:59.038Z,102543.88
2023-02-19T10:20:28.080Z,102553.13
2023-02-19T10:23:07.383Z,102561.59
2023-02-19T10:25:35.525Z,102566.41
2023-02-19T10:28:02.704Z,102571.78
2023-02-19T10:30:35.582Z,102573.47
2023-02-19T10:33:11.438Z,102570.72
2023-02-19T10:35:57.940Z,102580.66
2023-02-19T10:38:37.655Z,102582.03
2023-02-19T10:41:14.717Z,102579.88
2023-02-19T10:43:52.381Z,102582.91
2023-02-19T10:46:23.605Z,102578.34
2023-02-19T10:48:52.464Z,102589.72
2023-02-19T10:51:25.436Z,102594.66
2023-02-19T10:54:04.893Z,102594.09
2023-02-19T10:56:33.628Z,102585.69
2023-02-19T10:59:18.550Z,102580.81
2023-02-19T11:01:59.042Z,102579.31
2023-02-19T11:04:27.931Z,102575.72
2023-02-19T11:06:54.824Z,102560.81
2023-02-19T11:09:34.954Z,102565.09
2023-02-19T11:12:04.333Z,102576.16
2023-02-19T11:14:32.840Z,102590.13
2023-02-19T11:17:00.558Z,102587.50
2023-02-19T11:19:37.864Z,102592.91
2023-02-19T11:22:35.562Z,102586.88
2023-02-19T11:25:12.604Z,102588.13
2023-02-19T11:28:05.025Z,102597.41
2023-02-19T11:30:36.144Z,102606.50
2023-02-19T11:33:20.482Z,102585.81
2023-02-19T11:35:48.316Z,102588.31
2023-02-19T11:38:17.251Z,102610.22
2023-02-19T11:41:08.956Z,102605.22
2023-02-19T11:44:06.468Z,102603.31
2023-02-19T11:46:44.127Z,102607.75
2023-02-19T11:49:25.967Z,102607.06
2023-02-19T11:52:11.276Z,102613.09
2023-02-19T11:54:57.840Z,102606.97
2023-02-19T11:57:34.995Z,102598.22
2023-02-19T12:00:25.271Z,102603.00
2023-02-19T12:03:10.582Z,102604.88
2023-02-19T12:06:23.992Z,102606.72
2023-02-19T12:08:56.532Z,102611.91
2023-02-19T12:11:31.569Z,102608.94
2023-02-19T12:14:16.601Z,102612.16
2023-02-19T12:17:15.442Z,102614.78
2023-02-19T12:19:57.318Z,102617.84
2023-02-19T12:22:33.881Z,102609.13
2023-02-19T12:25:06.143Z,102622.84
2023-02-19T12:27:57.468Z,102617.91
2023-02-19T12:30:26.787Z,102614.69
2023-02-19T12:33:09.683Z,102619.44
2023-02-19T12:35:49.509Z,102612.53
2023-02-19T12:38:24.644Z,102625.53
2023-02-19T12:41:18.552Z,102634.22
2023-02-19T12:43:57.473Z,102637.69
2023-02-19T12:46:37.629Z,102638.97
2023-02-19T12:49:47.189Z,102647.50
2023-02-19T12:52:20.671Z,102641.66
2023-02-19T12:55:17.824Z,102657.09
2023-02-19T12:57:44.871Z,102654.34
2023-02-19T13:00:35.626Z,102668.66
2023-02-19T13:03:21.167Z,102676.41
2023-02-19T13:06:32.879Z,102672.63
2023-02-19T13:09:13.640Z,102663.94
2023-02-19T13:11:46.191Z,102670.84
2023-02-19T13:14:25.187Z,102677.38
2023-02-19T13:17:00.121Z,102684.63
2023-02-19T13:19:26.738Z,102697.63
2023-02-19T13:22:24.453Z,102704.66
2023-02-19T13:24:51.951Z,102701.06
2023-02-19T13:27:28.638Z,102702.91
2023-02-19T13:29:58.091Z,102713.53
2023-02-19T13:32:28.259Z,102711.66
2023-02-19T13:35:16.647Z,102707.47
2023-02-19T13:37:44.193Z,102704.59
2023-02-19T13:40:56.719Z,102713.78
2023-02-19T13:43:27.030Z,102709.47
2023-02-19T13:45:58.687Z,102717.34
2023-02-19T13:48:30.305Z,102726.16
2023-02-19T13:51:24.501Z,102726.50
2023-02-19T13:53:59.511Z,102736.13
2023-02-19T13:56:34.011Z,102726.06
2023-02-19T13:59:23.425Z,102727.50
2023-02-19T14:01:52.545Z,102729.38
2023-02-19T14:04:20.668Z,102730.94
2023-02-19T14:07:07.420Z,102734.13
2023-02-19T14:09:36.789Z,102735.00
2023-02-19T14:12:14.399Z,102741.69
2023-02-19T14:14:55.814Z,102740.16
2023-02-19T14:17:28.463Z,102737.78
2023-02-19T14:20:14.649Z,102728.56
2023-02-19T14:22:50.015Z,102724.31
2023-02-19T14:25:34.853Z,102723.50
2023-02-19T14:28:09.560Z,102719.63
2023-02-19T14:30:42.195Z,102717.84
2023-02-19T14:33:11.422Z,102709.25
2023-02-19T14:35:46.162Z,102700.69
2023-02-19T14:38:51.843Z,102709.38
2023-02-19T14:41:20.113Z,102701.66
2023-02-19T14:43:50.750Z,102693.38
2023-02-19T14:47:06.805Z,102690.41
2023-02-19T14:49:43.777Z,102688.19
2023-02-19T14:52:20.581Z,102690.94
2023-02-19T14:54:55.430Z,102681.97
2023-02-19T14:57:29.162Z,102690.00
2023-02-19T15:00:26.330Z,102670.38
2023-02-19T15:02:56.775Z,102663.50
2023-02-19T15:05:36.808Z,102662.66
2023-02-19T15:08:12.043Z,102675.22
2023-02-19T15:10:41.990Z,102662.81
2023-02-19T15:13:12.142Z,102671.94
2023-02-19T15:15:43.456Z,102674.56
2023-02-19T15:18:19.706Z,102687.13
2023-02-19T15:20:46.732Z,102699.69
2023-02-19T15:23:20.942Z,102709.53
2023-02-19T15:25:49.489Z,102709.22
2023-02-19T15:28:29.644Z,102724.06
2023-02-19T15:30:59.297Z,102723.03
2023-02-19T15:33:27.597Z,102732.50
2023-02-19T15:35:57.301Z,102734.50
2023-02-19T15:38:25.491Z,102739.19
2023-02-19T15:40:53.217Z,102744.13
2023-02-19T15:43:44.424Z,102744.38
2023-02-19T15:46:18.709Z,102741.84
2023-02-19T15:48:47.979Z,102741.03
2023-02-19T15:51:22.559Z,102740.34
2023-02-19T15:53:51.613Z,102734.50
2023-02-19T15:56:28.328Z,102727.84
2023-02-19T15:59:04.649Z,102727.50
2023-02-19T16:01:37.750Z,102740.03
2023-02-19T16:04:11.622Z,102749.81
2023-02-19T16:06:59.996Z,102758.78
2023-02-19T16:09:39.671Z,102759.94
2023-02-19T16:12:24.643Z,102773.34
2023-02-19T16:14:51.393Z,102776.66
2023-02-19T16:17:23.310Z,102782.03
2023-02-19T16:20:01.380Z,102784.06
2023-02-19T16:22:34.742Z,102786.81
2023-02-19T16:25:07.777Z,102784.69
2023-02-19T16:27:35.578Z,102788.38
2023-02-19T16:30:25.813Z,102780.97
2023-02-19T16:33:31.931Z,102788.97
2023-02-19T16:36:15.443Z,102782.06
2023-02-19T16:38:58.148Z,102788.97
2023-02-19T16:41:24.695Z,102795.53
2023-02-19T16:43:51.291Z,102785.31
2023-02-19T16:46:18.004Z,102785.53
2023-02-19T16:48:44.669Z,102790.06
2023-02-19T16:51:18.329Z,102792.69
2023-02-19T16:53:45.153Z,102808.53
2023-02-19T16:56:18.758Z,102806.03
2023-02-19T16:58:45.359Z,102803.66
2023-02-19T17:01:12.468Z,102807.94
2023-02-19T17:03:39.662Z,102796.13
2023-02-19T17:06:06.349Z,102782.56
2023-02-19T17:08:37.034Z,102780.75
2023-02-19T17:11:15.165Z,102782.56
2023-02-19T17:13:43.497Z,102786.97
2023-02-19T17:16:17.976Z,102794.94
2023-02-19T17:18:44.598Z,102790.41
2023-02-19T17:21:23.134Z,102797.47
2023-02-19T17:23:50.179Z,102802.56
2023-02-19T17:26:22.113Z,102801.97
2023-02-19T17:28:48.818Z,102804.59
2023-02-19T17:31:16.016Z,102804.50
2023-02-19T17:33:43.549Z,102813.28
2023-02-19T17:36:19.259Z,102814.47
2023-02-19T17:38:46.069Z,102818.06
2023-02-19T17:41:13.080Z,102819.84
2023-02-19T17:43:41.112Z,102826.97
2023-02-19T17:46:17.729Z,102834.25
2023-02-19T17:48:44.523Z,102837.81
2023-02-19T17:51:11.591Z,102849.25
2023-02-19T17:53:38.663Z,102852.81
2023-02-19T17:56:05.492Z,102843.28
2023-02-19T17:58:32.012Z,102846.03
2023-02-19T18:00:58.542Z,102839.97
2023-02-19T18:03:25.122Z,102837.44
2023-02-19T18:05:51.623Z,102844.59
2023-02-19T18:08:18.188Z,102828.88
2023-02-19T18:10:44.678Z,102829.59
2023-02-19T18:13:11.216Z,102828.88
2023-02-19T18:15:37.701Z,102818.50
2023-02-19T18:18:05.027Z,102815.88
2023-02-19T18:20:31.854Z,102816.00
2023-02-19T18:22:59.207Z,102817.91
2023-02-19T18:25:25.859Z,102819.47
2023-02-19T18:27:52.904Z,102810.16
2023-02-19T18:30:22.603Z,102806.59
2023-02-19T18:32:50.152Z,102809.44
2023-02-19T18:35:17.892Z,102814.53
2023-02-19T18:37:44.521Z,102807.00
2023-02-19T18:40:11.699Z,102814.25
2023-02-19T18:42:39.195Z,102818.06
2023-02-19T18:45:06.832Z,102816.75
2023-02-19T18:47:33.444Z,102814.22
2023-02-19T18:50:00.129Z,102812.78
2023-02-19T18:52:27.601Z,102818.59
2023-02-19T18:54:57.266Z,102815.59
2023-02-19T18:57:25.113Z,102820.22
2023-02-19T18:59:52.045Z,102822.47
2023-02-19T19:02:19.376Z,102824.69
2023-02-19T19:04:52.949Z,102817.19
2023-02-19T19:07:20.772Z,102814.16
2023-02-19T19:09:47.827Z,102818.03
2023-02-19T19:12:15.037Z,102817.56
2023-02-19T19:14:41.639Z,102821.34
2023-02-19T19:17:08.232Z,102830.44
2023-02-19T19:19:34.820Z,102829.00
2023-02-19T19:22:01.430Z,102828.38
2023-02-19T19:24:27.990Z,102828.72
2023-02-19T19:26:54.673Z,102832.38
2023-02-19T19:29:22.197Z,102826.59
2023-02-19T19:31:49.764Z,102842.19
2023-02-19T19:34:17.090Z,102844.19
2023-02-19T19:36:44.166Z,102834.88
2023-02-19T19:39:10.851Z,102832.59
2023-02-19T19:41:37.478Z,102843.25
2023-02-19T19:44:06.350Z,102832.28
2023-02-19T19:46:33.719Z,102835.94
2023-02-19T19:49:00.714Z,102848.28
2023-02-19T19:51:34.509Z,102837.44
2023-02-19T19:54:04.176Z,102838.34
2023-02-19T19:56:31.271Z,102839.41
2023-02-19T19:58:57.861Z,102830.13
2023-02-19T20:01:24.612Z,102820.69
2023-02-19T20:03:51.357Z,102832.19
2023-02-19T20:06:29.215Z,102824.56
2023-02-19T20:08:55.843Z,102827.38
2023-02-19T20:11:22.914Z,102827.69
2023-02-19T20:13:49.635Z,102832.09
2023-02-19T20:16:16.286Z,102831.38
2023-02-19T20:18:42.846Z,102830.63
2023-02-19T20:21:11.077Z,102825.59
2023-02-19T20:23:39.816Z,102817.88
2023-02-19T20:26:06.816Z,102814.66
2023-02-19T20:28:33.794Z,102812.25
2023-02-19T20:31:00.646Z,102810.56
2023-02-19T20:33:27.298Z,102823.63
2023-02-19T20:35:53.808Z,102821.09
2023-02-19T20:38:20.325Z,102822.16
2023-02-19T20:40:46.956Z,102822.16
2023-02-19T20:43:13.473Z,102831.88
2023-02-19T20:45:41.034Z,102826.78
2023-02-19T20:48:07.701Z,102821.94
2023-02-19T20:50:34.260Z,102835.13
2023-02-19T20:53:01.231Z,102825.69
2023-02-19T20:55:28.732Z,102824.13
2023-02-19T20:57:55.360Z,102815.66
2023-02-19T21:00:24.417Z,102821.00
2023-02-19T21:02:51.799Z,102819.53
2023-02-19T21:05:19.892Z,102808.22
2023-02-19T21:07:46.714Z,102798.00
2023-02-19T21:10:13.611Z,102786.81
2023-02-19T21:12:41.902Z,102782.53
2023-02-19T21:15:09.088Z,102778.47
2023-02-19T21:17:35.662Z,102775.09
2023-02-19T21:20:02.208Z,102773.31
2023-02-19T21:22:28.761Z,102783.75
2023-02-19T21:24:55.362Z,102786.50
2023-02-19T21:27:21.922Z,102779.59
2023-02-19T21:29:48.521Z,102779.50
2023-02-19T21:32:15.285Z,102778.53
2023-02-19T21:34:42.332Z,102776.88
2023-02-19T21:37:08.939Z,102787.31
2023-02-19T21:39:35.544Z,102789.09
2023-02-19T21:42:02.591Z,102801.31
2023-02-19T21:44:29.117Z,102797.00
2023-02-19T21:46:56.037Z,102785.03
2023-02-19T21:49:25.693Z,102789.50
2023-02-19T21:51:52.393Z,102787.72
2023-02-19T21:54:24.576Z,102784.28
2023-02-19T21:56:54.889Z,102794.91
2023-02-19T21:59:22.554Z,102796.59
2023-02-19T22:01:50.512Z,102791.38
2023-02-19T22:04:19.947Z,102785.34
2023-02-19T22:06:49.413Z,102785.34
2023-02-19T22:09:16.641Z,102787.94
2023-02-19T22:11:43.304Z,102784.38
2023-02-19T22:14:09.840Z,102780.13
2023-02-19T22:16:36.545Z,102793.88
2023-02-19T22:19:03.213Z,102783.44
2023-02-19T22:21:34.404Z,102782.72
2023-02-19T22:24:02.336Z,102782.72
2023-02-19T22:26:32.766Z,102782.72
2023-02-19T22:28:59.636Z,102768.72
2023-02-19T22:31:27.590Z,102772.16
2023-02-19T22:33:54.300Z,102761.72
2023-02-19T22:36:28.988Z,102765.16
2023-02-19T22:38:55.505Z,102752.22
2023-02-19T22:41:23.202Z,102758.47
2023-02-19T22:43:49.986Z,102760.34
2023-02-19T22:46:19.179Z,102755.25
2023-02-19T22:48:46.185Z,102762.13
2023-02-19T22:51:18.568Z,102758.69
2023-02-19T22:53:53.276Z,102749.06
2023-02-19T22:56:22.213Z,102743.84
2023-02-19T22:58:48.846Z,102745.56
2023-02-19T23:01:15.807Z,102740.41
2023-02-19T23:03:54.437Z,102745.56
2023-02-19T23:06:24.794Z,102729.78
2023-02-19T23:08:52.900Z,102723.59
2023-02-19T23:11:28.696Z,102725.91
2023-02-19T23:13:55.393Z,102726.66
2023-02-19T23:16:22.233Z,102716.19
2023-02-19T23:18:49.670Z,102725.63
2023-02-19T23:21:17.269Z,102714.22
2023-02-19T23:23:45.435Z,102713.19
2023-02-19T23:26:13.454Z,102721.75
2023-02-19T23:28:41.785Z,102729.28
2023-02-19T23:31:08.558Z,102717.91
2023-02-19T23:33:35.386Z,102728.22
2023-02-19T23:36:02.116Z,102737.72
2023-02-19T23:38:28.817Z,102741.06
2023-02-19T23:40:55.337Z,102734.00
2023-02-19T23:43:21.923Z,102738.25
2023-02-19T23:45:48.454Z,102735.53
2023-02-19T23:48:15.289Z,102737.22
2023-02-19T23:50:41.860Z,102724.06
2023-02-19T23:53:08.822Z,102710.03
2023-02-19T23:55:35.639Z,102699.50
2023-02-19T23:58:02.183Z,102700.34
